Time,TemperatureF,DewpointF,PressureIn,WindDirection,WindDirectionDegrees,WindSpeedMPH,WindSpeedGustMPH,Humidity,HourlyPrecipIn,Conditions,Clouds,dailyrainin,SoftwareType,DateUTC
2013-03-03 00:00:00,43.4,38.3,30.20,NW,315,0.9,2.2,82,0.00,,,0.00,WUHU216HW,2013-03-03 08:00:00,
2013-03-03 00:05:00,43.2,38.1,30.20,North,0,1.1,2.2,82,0.00,,,0.00,WUHU216HW,2013-03-03 08:05:00,
2013-03-03 00:10:00,43.0,37.9,30.20,WSW,248,0.4,1.6,82,0.00,,,0.00,WUHU216HW,2013-03-03 08:10:00,
2013-03-03 00:15:00,42.8,38.0,30.20,NW,315,0.4,1.1,83,0.00,,,0.00,WUHU216HW,2013-03-03 08:15:00,
2013-03-03 00:20:00,42.5,37.6,30.20,NNW,338,0.0,0.9,83,0.00,,,0.00,WUHU216HW,2013-03-03 08:20:00,
2013-03-03 00:25:00,42.3,37.4,30.20,NW,315,0.0,0.9,83,0.00,,,0.00,WUHU216HW,2013-03-03 08:25:00,
2013-03-03 00:30:00,42.1,37.3,30.21,NNW,338,0.2,0.9,83,0.00,,,0.00,WUHU216HW,2013-03-03 08:30:00,
2013-03-03 00:35:00,41.9,37.5,30.21,West,270,0.2,0.4,84,0.00,,,0.00,WUHU216HW,2013-03-03 08:35:00,
2013-03-03 00:40:00,41.8,37.3,30.21,North,0,0.0,0.4,84,0.00,,,0.00,WUHU216HW,2013-03-03 08:40:00,
2013-03-03 00:45:00,41.8,37.3,30.21,NW,315,0.0,0.4,84,0.00,,,0.00,WUHU216HW,2013-03-03 08:45:00,
2013-03-03 00:50:00,41.4,36.9,30.21,NNW,338,0.0,0.2,84,0.00,,,0.00,WUHU216HW,2013-03-03 08:50:00,
2013-03-03 00:55:00,41.2,36.7,30.22,WSW,248,0.0,0.2,84,0.00,,,0.00,WUHU216HW,2013-03-03 08:55:00,
2013-03-03 01:00:00,41.0,36.6,30.22,WNW,293,0.2,0.4,84,0.00,,,0.00,WUHU216HW,2013-03-03 09:00:00,
2013-03-03 01:05:00,40.9,36.4,30.22,NW,315,0.0,0.4,84,0.00,,,0.00,WUHU216HW,2013-03-03 09:05:00,
2013-03-03 01:10:00,40.7,36.2,30.22,NW,315,0.0,0.2,84,0.00,,,0.00,WUHU216HW,2013-03-03 09:10:00,
2013-03-03 01:15:00,40.5,36.3,30.22,NW,315,0.0,0.2,85,0.00,,,0.00,WUHU216HW,2013-03-03 09:15:00,
2013-03-03 01:20:00,40.3,36.1,30.22,WNW,293,0.0,0.2,85,0.00,,,0.00,WUHU216HW,2013-03-03 09:20:00,
2013-03-03 01:25:00,40.3,36.1,30.22,NW,315,0.0,0.2,85,0.00,,,0.00,WUHU216HW,2013-03-03 09:25:00,
2013-03-03 01:30:00,40.0,35.8,30.22,NW,315,0.0,0.2,85,0.00,,,0.00,WUHU216HW,2013-03-03 09:30:00,
2013-03-03 01:35:00,40.0,35.8,30.23,North,0,0.0,0.2,85,0.00,,,0.00,WUHU216HW,2013-03-03 09:35:00,
2013-03-03 01:40:00,39.8,35.7,30.23,North,0,0.0,0.2,85,0.00,,,0.00,WUHU216HW,2013-03-03 09:40:00,
2013-03-03 01:45:00,39.6,35.5,30.23,North,0,0.0,0.0,85,0.00,,,0.00,WUHU216HW,2013-03-03 09:45:00,
2013-03-03 01:50:00,39.2,35.4,30.24,WNW,293,0.0,0.4,86,0.00,,,0.00,WUHU216HW,2013-03-03 09:50:00,
2013-03-03 01:55:00,39.1,35.2,30.24,WNW,293,0.0,0.4,86,0.00,,,0.00,WUHU216HW,2013-03-03 09:55:00,
2013-03-03 02:00:00,38.7,34.8,30.24,WNW,293,0.0,0.0,86,0.00,,,0.00,WUHU216HW,2013-03-03 10:00:00,
2013-03-03 02:05:00,38.5,34.7,30.24,WNW,293,0.0,0.0,86,0.00,,,0.00,WUHU216HW,2013-03-03 10:05:00,
2013-03-03 02:10:00,38.3,34.7,30.24,WNW,293,0.0,0.0,87,0.00,,,0.00,WUHU216HW,2013-03-03 10:10:00,
2013-03-03 02:15:00,38.0,34.4,30.24,NNW,338,0.0,0.2,87,0.00,,,0.00,WUHU216HW,2013-03-03 10:15:00,
2013-03-03 02:20:00,37.8,34.2,30.24,NNW,338,0.0,0.2,87,0.00,,,0.00,WUHU216HW,2013-03-03 10:20:00,
2013-03-03 02:25:00,37.6,34.7,30.24,NNW,338,0.0,0.4,89,0.00,,,0.00,WUHU216HW,2013-03-03 10:25:00,
2013-03-03 02:30:00,37.4,34.5,30.24,North,0,0.4,0.4,89,0.00,,,0.00,WUHU216HW,2013-03-03 10:30:00,
2013-03-03 02:35:00,37.4,34.5,30.24,NNW,338,0.0,0.4,89,0.00,,,0.00,WUHU216HW,2013-03-03 10:35:00,
2013-03-03 02:40:00,37.4,34.5,30.24,NW,315,0.0,0.4,89,0.00,,,0.00,WUHU216HW,2013-03-03 10:40:00,
2013-03-03 02:45:00,37.8,35.1,30.23,North,0,0.0,0.4,90,0.00,,,0.00,WUHU216HW,2013-03-03 10:45:00,
2013-03-03 02:50:00,38.2,35.7,30.24,North,0,0.0,0.7,91,0.00,,,0.00,WUHU216HW,2013-03-03 10:50:00,
2013-03-03 02:55:00,38.5,35.8,30.24,NNE,23,0.4,1.3,90,0.00,,,0.00,WUHU216HW,2013-03-03 10:55:00,
2013-03-03 03:00:00,38.7,36.0,30.23,North,0,0.4,1.3,90,0.00,,,0.00,WUHU216HW,2013-03-03 11:00:00,
2013-03-03 03:05:00,38.9,36.2,30.23,North,0,0.2,0.9,90,0.00,,,0.00,WUHU216HW,2013-03-03 11:05:00,
2013-03-03 03:10:00,39.2,36.5,30.23,NW,315,0.7,0.9,90,0.00,,,0.00,WUHU216HW,2013-03-03 11:10:00,
2013-03-03 03:15:00,39.2,36.5,30.23,NNE,23,0.4,1.1,90,0.00,,,0.00,WUHU216HW,2013-03-03 11:15:00,
2013-03-03 03:20:00,39.1,36.1,30.23,North,0,0.2,1.1,89,0.00,,,0.00,WUHU216HW,2013-03-03 11:20:00,
2013-03-03 03:25:00,39.1,36.1,30.23,NNE,23,0.0,0.4,89,0.00,,,0.00,WUHU216HW,2013-03-03 11:25:00,
2013-03-03 03:30:00,38.9,35.9,30.23,NNE,23,0.2,0.9,89,0.00,,,0.00,WUHU216HW,2013-03-03 11:30:00,
2013-03-03 03:35:00,38.7,35.7,30.22,North,0,0.0,0.9,89,0.00,,,0.00,WUHU216HW,2013-03-03 11:35:00,
2013-03-03 03:40:00,38.5,35.6,30.22,NNE,23,0.2,0.4,89,0.00,,,0.00,WUHU216HW,2013-03-03 11:40:00,
2013-03-03 03:45:00,38.5,35.6,30.22,NNE,23,0.0,0.2,89,0.00,,,0.00,WUHU216HW,2013-03-03 11:45:00,
2013-03-03 03:50:00,38.2,35.2,30.22,NNE,23,0.0,0.2,89,0.00,,,0.00,WUHU216HW,2013-03-03 11:50:00,
2013-03-03 03:55:00,37.8,34.8,30.22,NNW,338,0.0,0.0,89,0.00,,,0.00,WUHU216HW,2013-03-03 11:55:00,
2013-03-03 04:00:00,37.6,34.7,30.22,NNW,338,0.0,0.0,89,0.00,,,0.00,WUHU216HW,2013-03-03 12:00:00,
2013-03-03 04:05:00,37.3,34.3,30.22,North,0,0.2,0.4,89,0.00,,,0.00,WUHU216HW,2013-03-03 12:05:00,
2013-03-03 04:10:00,37.4,34.5,30.22,NNE,23,0.2,0.4,89,0.00,,,0.00,WUHU216HW,2013-03-03 12:10:00,
2013-03-03 04:15:00,37.6,34.9,30.22,NNW,338,0.0,0.4,90,0.00,,,0.00,WUHU216HW,2013-03-03 12:15:00,
2013-03-03 04:20:00,37.8,35.1,30.22,North,0,0.0,0.2,90,0.00,,,0.00,WUHU216HW,2013-03-03 12:20:00,
2013-03-03 04:25:00,37.6,34.9,30.22,NW,315,0.0,0.2,90,0.00,,,0.00,WUHU216HW,2013-03-03 12:25:00,
2013-03-03 04:30:00,37.4,34.7,30.22,NW,315,0.0,0.2,90,0.00,,,0.00,WUHU216HW,2013-03-03 12:30:00,
2013-03-03 04:35:00,37.3,34.3,30.22,WNW,293,0.0,0.0,89,0.00,,,0.00,WUHU216HW,2013-03-03 12:35:00,
2013-03-03 04:40:00,37.1,34.1,30.22,WNW,293,0.0,0.0,89,0.00,,,0.00,WUHU216HW,2013-03-03 12:40:00,
2013-03-03 04:45:00,36.9,33.9,30.22,WNW,293,0.0,0.0,89,0.00,,,0.00,WUHU216HW,2013-03-03 12:45:00,
2013-03-03 04:50:00,36.7,33.8,30.22,WNW,293,0.0,0.0,89,0.00,,,0.00,WUHU216HW,2013-03-03 12:50:00,
2013-03-03 04:55:00,36.4,33.4,30.22,WNW,293,0.0,0.0,89,0.00,,,0.00,WUHU216HW,2013-03-03 12:55:00,
2013-03-03 05:00:00,36.2,33.2,30.22,WNW,293,0.0,0.0,89,0.00,,,0.00,WUHU216HW,2013-03-03 13:00:00,
2013-03-03 05:05:00,36.0,33.0,30.22,WNW,293,0.0,0.0,89,0.00,,,0.00,WUHU216HW,2013-03-03 13:05:00,
2013-03-03 05:10:00,35.8,32.9,30.22,WNW,293,0.0,0.0,89,0.00,,,0.00,WUHU216HW,2013-03-03 13:10:00,
2013-03-03 05:15:00,35.6,32.7,30.22,WNW,293,0.0,0.0,89,0.00,,,0.00,WUHU216HW,2013-03-03 13:15:00,
2013-03-03 05:20:00,35.5,32.5,30.22,WNW,293,0.0,0.0,89,0.00,,,0.00,WUHU216HW,2013-03-03 13:20:00,
2013-03-03 05:25:00,35.3,32.3,30.22,WNW,293,0.2,0.2,89,0.00,,,0.00,WUHU216HW,2013-03-03 13:25:00,
2013-03-03 05:30:00,35.1,32.1,30.22,WNW,293,0.0,0.2,89,0.00,,,0.00,WUHU216HW,2013-03-03 13:30:00,
2013-03-03 05:35:00,34.9,32.0,30.22,NW,315,0.0,0.0,89,0.00,,,0.00,WUHU216HW,2013-03-03 13:35:00,
2013-03-03 05:40:00,34.9,32.2,30.22,WNW,293,0.0,0.2,90,0.00,,,0.00,WUHU216HW,2013-03-03 13:40:00,
2013-03-03 05:45:00,34.7,32.0,30.23,NW,315,0.0,0.2,90,0.00,,,0.00,WUHU216HW,2013-03-03 13:45:00,
2013-03-03 05:50:00,34.7,32.0,30.23,NW,315,0.0,0.0,90,0.00,,,0.00,WUHU216HW,2013-03-03 13:50:00,
2013-03-03 05:55:00,34.6,31.9,30.23,WNW,293,0.0,0.0,90,0.00,,,0.00,WUHU216HW,2013-03-03 13:55:00,
2013-03-03 06:00:00,34.4,31.7,30.23,WNW,293,0.0,0.2,90,0.00,,,0.00,WUHU216HW,2013-03-03 14:00:00,
2013-03-03 06:05:00,34.2,31.8,30.23,WNW,293,0.0,0.2,91,0.00,,,0.00,WUHU216HW,2013-03-03 14:05:00,
2013-03-03 06:10:00,34.2,31.8,30.23,North,0,0.4,0.4,91,0.00,,,0.00,WUHU216HW,2013-03-03 14:10:00,
2013-03-03 06:15:00,34.0,31.6,30.23,NW,315,0.0,0.4,91,0.00,,,0.00,WUHU216HW,2013-03-03 14:15:00,
2013-03-03 06:20:00,33.8,31.4,30.23,NW,315,0.0,0.4,91,0.00,,,0.00,WUHU216HW,2013-03-03 14:20:00,
2013-03-03 06:25:00,33.7,31.2,30.23,WNW,293,0.0,0.2,91,0.00,,,0.00,WUHU216HW,2013-03-03 14:25:00,
2013-03-03 06:30:00,33.7,31.2,30.23,WNW,293,0.0,0.2,91,0.00,,,0.00,WUHU216HW,2013-03-03 14:30:00,
2013-03-03 06:35:00,33.5,31.1,30.23,NW,315,0.0,0.0,91,0.00,,,0.00,WUHU216HW,2013-03-03 14:35:00,
2013-03-03 06:40:00,33.5,31.3,30.24,NW,315,0.0,0.2,92,0.00,,,0.00,WUHU216HW,2013-03-03 14:40:00,
2013-03-03 06:45:00,33.3,31.1,30.23,NW,315,0.0,0.2,92,0.00,,,0.00,WUHU216HW,2013-03-03 14:45:00,
2013-03-03 06:50:00,33.1,31.1,30.24,NW,315,0.0,0.2,92,0.00,,,0.00,WUHU216HW,2013-03-03 14:50:00,
2013-03-03 06:55:00,33.1,31.1,30.24,NW,315,0.0,0.0,92,0.00,,,0.00,WUHU216HW,2013-03-03 14:55:00,
2013-03-03 07:00:00,33.1,31.1,30.24,NW,315,0.0,0.0,92,0.00,,,0.00,WUHU216HW,2013-03-03 15:00:00,
2013-03-03 07:05:00,33.1,31.1,30.24,NW,315,0.0,0.0,92,0.00,,,0.00,WUHU216HW,2013-03-03 15:05:00,
2013-03-03 07:10:00,33.1,31.1,30.24,NW,315,0.0,0.0,92,0.00,,,0.00,WUHU216HW,2013-03-03 15:10:00,
2013-03-03 07:15:00,33.3,31.1,30.24,NW,315,0.0,0.0,92,0.00,,,0.00,WUHU216HW,2013-03-03 15:15:00,
2013-03-03 07:20:00,33.5,31.3,30.24,NW,315,0.0,0.0,92,0.00,,,0.00,WUHU216HW,2013-03-03 15:20:00,
2013-03-03 07:25:00,33.7,31.5,30.25,NW,315,0.0,0.0,92,0.00,,,0.00,WUHU216HW,2013-03-03 15:25:00,
2013-03-03 07:30:00,34.2,32.3,30.24,NW,315,0.0,0.0,93,0.00,,,0.00,WUHU216HW,2013-03-03 15:30:00,
2013-03-03 07:35:00,35.5,33.6,30.25,NW,315,0.0,0.0,93,0.00,,,0.00,WUHU216HW,2013-03-03 15:35:00,
2013-03-03 07:40:00,36.9,35.0,30.25,NW,315,0.0,0.0,93,0.00,,,0.00,WUHU216HW,2013-03-03 15:40:00,
2013-03-03 07:45:00,38.7,36.5,30.25,North,0,0.0,0.2,92,0.00,,,0.00,WUHU216HW,2013-03-03 15:45:00,
2013-03-03 07:50:00,40.9,39.0,30.25,North,0,0.0,0.2,93,0.00,,,0.00,WUHU216HW,2013-03-03 15:50:00,
2013-03-03 07:55:00,43.4,40.7,30.25,NW,315,0.0,0.0,90,0.00,,,0.00,WUHU216HW,2013-03-03 15:55:00,
2013-03-03 08:00:00,45.0,41.7,30.25,NW,315,0.0,0.0,88,0.00,,,0.00,WUHU216HW,2013-03-03 16:00:00,
2013-03-03 08:05:00,45.2,41.0,30.25,NW,315,0.0,0.0,85,0.00,,,0.00,WUHU216HW,2013-03-03 16:05:00,
2013-03-03 08:10:00,45.2,40.3,30.25,North,0,0.2,0.4,83,0.00,,,0.00,WUHU216HW,2013-03-03 16:10:00,
2013-03-03 08:15:00,45.0,38.9,30.25,NNE,23,0.2,0.7,79,0.00,,,0.00,WUHU216HW,2013-03-03 16:15:00,
2013-03-03 08:20:00,44.3,38.5,30.25,NNE,23,0.4,0.7,80,0.00,,,0.00,WUHU216HW,2013-03-03 16:20:00,
2013-03-03 08:25:00,44.1,38.6,30.25,NNE,23,0.0,1.8,81,0.00,,,0.00,WUHU216HW,2013-03-03 16:25:00,
2013-03-03 08:30:00,44.6,39.2,30.25,NNE,23,0.0,1.8,81,0.00,,,0.00,WUHU216HW,2013-03-03 16:30:00,
2013-03-03 08:35:00,46.1,40.6,30.25,North,0,0.4,1.8,81,0.00,,,0.00,WUHU216HW,2013-03-03 16:35:00,
2013-03-03 08:40:00,45.9,39.2,30.25,NNE,23,1.1,2.2,77,0.00,,,0.00,WUHU216HW,2013-03-03 16:40:00,
2013-03-03 08:45:00,45.2,38.4,30.25,NNE,23,1.1,2.7,77,0.00,,,0.00,WUHU216HW,2013-03-03 16:45:00,
2013-03-03 08:50:00,45.2,38.4,30.26,NNW,338,2.5,2.7,77,0.00,,,0.00,WUHU216HW,2013-03-03 16:50:00,
2013-03-03 08:55:00,45.2,38.4,30.26,NNE,23,2.5,2.7,77,0.00,,,0.00,WUHU216HW,2013-03-03 16:55:00,
2013-03-03 09:00:00,45.7,39.2,30.26,WNW,293,0.2,3.1,78,0.00,,,0.00,WUHU216HW,2013-03-03 17:00:00,
2013-03-03 09:05:00,46.1,37.9,30.26,NNE,23,1.8,3.1,73,0.00,,,0.00,WUHU216HW,2013-03-03 17:05:00,
2013-03-03 09:10:00,45.7,37.5,30.26,NE,45,1.8,4.5,73,0.00,,,0.00,WUHU216HW,2013-03-03 17:10:00,
2013-03-03 09:15:00,45.4,36.9,30.26,NE,45,2.7,4.5,72,0.00,,,0.00,WUHU216HW,2013-03-03 17:15:00,
2013-03-03 09:20:00,45.0,37.2,30.26,WSW,248,2.2,3.4,74,0.00,,,0.00,WUHU216HW,2013-03-03 17:20:00,
2013-03-03 09:25:00,44.8,37.0,30.26,North,0,1.8,4.9,74,0.00,,,0.00,WUHU216HW,2013-03-03 17:25:00,
2013-03-03 09:30:00,45.0,36.8,30.26,NE,45,3.6,4.9,73,0.00,,,0.00,WUHU216HW,2013-03-03 17:30:00,
2013-03-03 09:35:00,44.8,36.4,30.26,NNW,338,0.4,4.5,72,0.00,,,0.00,WUHU216HW,2013-03-03 17:35:00,
2013-03-03 09:40:00,45.0,36.8,30.26,NNE,23,4.7,6.3,73,0.00,,,0.00,WUHU216HW,2013-03-03 17:40:00,
2013-03-03 09:45:00,45.0,36.6,30.26,North,0,0.7,6.3,72,0.00,,,0.00,WUHU216HW,2013-03-03 17:45:00,
2013-03-03 09:50:00,45.0,36.6,30.26,South,180,1.1,5.6,72,0.00,,,0.00,WUHU216HW,2013-03-03 17:50:00,
2013-03-03 09:55:00,45.0,36.6,30.26,NE,45,1.1,6.3,72,0.00,,,0.00,WUHU216HW,2013-03-03 17:55:00,
2013-03-03 10:00:00,45.2,36.7,30.26,NNE,23,2.5,6.3,72,0.00,,,0.00,WUHU216HW,2013-03-03 18:00:00,
2013-03-03 10:05:00,45.5,38.1,30.26,NNE,23,3.1,4.0,75,0.00,,,0.00,WUHU216HW,2013-03-03 18:05:00,
2013-03-03 10:10:00,45.7,37.3,30.25,NNE,23,2.5,4.5,72,0.00,,,0.00,WUHU216HW,2013-03-03 18:10:00,
2013-03-03 10:15:00,46.1,37.6,30.26,NNE,23,2.7,5.1,72,0.00,,,0.00,WUHU216HW,2013-03-03 18:15:00,
2013-03-03 10:20:00,45.7,36.5,30.26,North,0,3.4,5.8,70,0.00,,,0.00,WUHU216HW,2013-03-03 18:20:00,
2013-03-03 10:25:00,45.5,35.2,30.26,NE,45,3.1,5.8,67,0.00,,,0.00,WUHU216HW,2013-03-03 18:25:00,
2013-03-03 10:30:00,45.5,36.4,30.25,WNW,293,2.5,6.3,70,0.00,,,0.00,WUHU216HW,2013-03-03 18:30:00,
2013-03-03 10:35:00,45.7,35.4,30.25,NNE,23,3.4,6.3,67,0.00,,,0.00,WUHU216HW,2013-03-03 18:35:00,
2013-03-03 10:40:00,45.7,34.2,30.25,NNE,23,6.3,8.7,64,0.00,,,0.00,WUHU216HW,2013-03-03 18:40:00,
2013-03-03 10:45:00,45.5,34.8,30.25,SW,225,1.3,8.7,66,0.00,,,0.00,WUHU216HW,2013-03-03 18:45:00,
2013-03-03 10:50:00,46.1,35.4,30.25,NNE,23,3.4,7.8,66,0.00,,,0.00,WUHU216HW,2013-03-03 18:50:00,
2013-03-03 10:55:00,47.2,35.6,30.25,North,0,2.5,7.8,64,0.00,,,0.00,WUHU216HW,2013-03-03 18:55:00,
2013-03-03 11:00:00,47.5,34.7,30.25,NNE,23,3.4,5.1,61,0.00,,,0.00,WUHU216HW,2013-03-03 19:00:00,
2013-03-03 11:05:00,47.2,34.4,30.25,NNE,23,2.9,8.5,61,0.00,,,0.00,WUHU216HW,2013-03-03 19:05:00,
2013-03-03 11:10:00,46.8,34.5,30.25,NE,45,2.5,8.5,62,0.00,,,0.00,WUHU216HW,2013-03-03 19:10:00,
2013-03-03 11:15:00,46.6,33.0,30.25,ENE,68,4.0,6.5,59,0.00,,,0.00,WUHU216HW,2013-03-03 19:15:00,
2013-03-03 11:20:00,46.8,32.3,30.25,NNE,23,3.1,5.4,57,0.00,,,0.00,WUHU216HW,2013-03-03 19:20:00,
2013-03-03 11:25:00,47.2,33.1,30.25,North,0,4.3,5.6,58,0.00,,,0.00,WUHU216HW,2013-03-03 19:25:00,
2013-03-03 11:30:00,47.3,33.3,30.25,NNE,23,2.2,7.8,58,0.00,,,0.00,WUHU216HW,2013-03-03 19:30:00,
2013-03-03 11:35:00,47.5,33.5,30.25,NE,45,3.4,7.8,58,0.00,,,0.00,WUHU216HW,2013-03-03 19:35:00,
2013-03-03 11:40:00,47.2,32.7,30.24,SW,225,3.4,6.5,57,0.00,,,0.00,WUHU216HW,2013-03-03 19:40:00,
2013-03-03 11:45:00,47.3,31.9,30.25,NE,45,3.1,6.5,55,0.00,,,0.00,WUHU216HW,2013-03-03 19:45:00,
2013-03-03 11:50:00,47.5,32.6,30.24,NNE,23,4.5,6.3,56,0.00,,,0.00,WUHU216HW,2013-03-03 19:50:00,
2013-03-03 11:55:00,47.7,33.2,30.24,North,0,1.8,4.9,57,0.00,,,0.00,WUHU216HW,2013-03-03 19:55:00,
2013-03-03 12:00:00,47.9,32.9,30.24,NNE,23,5.8,7.6,56,0.00,,,0.00,WUHU216HW,2013-03-03 20:00:00,
2013-03-03 12:05:00,47.3,33.3,30.24,NNE,23,6.0,7.6,58,0.00,,,0.00,WUHU216HW,2013-03-03 20:05:00,
2013-03-03 12:10:00,47.2,32.2,30.24,NNE,23,5.1,7.2,56,0.00,,,0.00,WUHU216HW,2013-03-03 20:10:00,
2013-03-03 12:15:00,47.0,33.0,30.24,SW,225,1.6,6.7,58,0.00,,,0.00,WUHU216HW,2013-03-03 20:15:00,
2013-03-03 12:20:00,47.7,33.2,30.23,North,0,2.7,6.9,57,0.00,,,0.00,WUHU216HW,2013-03-03 20:20:00,
2013-03-03 12:25:00,48.6,34.0,30.23,North,0,0.4,6.9,57,0.00,,,0.00,WUHU216HW,2013-03-03 20:25:00,
2013-03-03 12:30:00,49.1,34.1,30.23,SSW,203,0.7,4.9,56,0.00,,,0.00,WUHU216HW,2013-03-03 20:30:00,
2013-03-03 12:35:00,48.6,32.1,30.23,North,0,2.7,7.2,53,0.00,,,0.00,WUHU216HW,2013-03-03 20:35:00,
2013-03-03 12:40:00,48.2,32.3,30.23,NE,45,2.7,7.2,54,0.00,,,0.00,WUHU216HW,2013-03-03 20:40:00,
2013-03-03 12:45:00,49.1,32.2,30.23,NE,45,8.5,8.7,52,0.00,,,0.00,WUHU216HW,2013-03-03 20:45:00,
2013-03-03 12:50:00,49.0,32.9,30.22,NNE,23,4.5,8.7,54,0.00,,,0.00,WUHU216HW,2013-03-03 20:50:00,
2013-03-03 12:55:00,49.0,32.5,30.22,NE,45,4.0,8.5,53,0.00,,,0.00,WUHU216HW,2013-03-03 20:55:00,
2013-03-03 13:00:00,49.0,33.5,30.22,NW,315,4.3,8.5,55,0.00,,,0.00,WUHU216HW,2013-03-03 21:00:00,
2013-03-03 13:05:00,49.5,33.5,30.22,North,0,4.3,8.5,54,0.00,,,0.00,WUHU216HW,2013-03-03 21:05:00,
2013-03-03 13:10:00,49.3,32.9,30.22,NNE,23,5.4,8.9,53,0.00,,,0.00,WUHU216HW,2013-03-03 21:10:00,
2013-03-03 13:15:00,48.6,32.1,30.22,North,0,2.0,10.5,53,0.00,,,0.00,WUHU216HW,2013-03-03 21:15:00,
2013-03-03 13:20:00,49.0,32.9,30.22,NNE,23,4.7,10.5,54,0.00,,,0.00,WUHU216HW,2013-03-03 21:20:00,
2013-03-03 13:25:00,49.3,33.3,30.22,NNW,338,0.2,7.2,54,0.00,,,0.00,WUHU216HW,2013-03-03 21:25:00,
2013-03-03 13:30:00,49.7,33.7,30.22,NE,45,0.7,6.3,54,0.00,,,0.00,WUHU216HW,2013-03-03 21:30:00,
2013-03-03 13:35:00,50.0,32.7,30.22,NNE,23,6.9,7.4,51,0.00,,,0.00,WUHU216HW,2013-03-03 21:35:00,
2013-03-03 13:40:00,49.9,32.9,30.22,NNW,338,4.0,7.4,52,0.00,,,0.00,WUHU216HW,2013-03-03 21:40:00,
2013-03-03 13:45:00,50.0,32.7,30.21,NNW,338,0.4,7.4,51,0.00,,,0.00,WUHU216HW,2013-03-03 21:45:00,
2013-03-03 13:50:00,50.0,33.6,30.21,NNE,23,2.0,7.6,53,0.00,,,0.00,WUHU216HW,2013-03-03 21:50:00,
2013-03-03 13:55:00,50.2,33.3,30.21,North,0,6.0,7.8,52,0.00,,,0.00,WUHU216HW,2013-03-03 21:55:00,
2013-03-03 14:00:00,50.2,31.9,30.22,NNE,23,3.6,7.8,49,0.00,,,0.00,WUHU216HW,2013-03-03 22:00:00,
2013-03-03 14:05:00,50.0,33.1,30.21,NNW,338,3.1,8.7,52,0.00,,,0.00,WUHU216HW,2013-03-03 22:05:00,
2013-03-03 14:10:00,50.2,33.3,30.21,NNE,23,1.6,8.7,52,0.00,,,0.00,WUHU216HW,2013-03-03 22:10:00,
2013-03-03 14:15:00,50.0,32.7,30.21,North,0,4.9,10.7,51,0.00,,,0.00,WUHU216HW,2013-03-03 22:15:00,
2013-03-03 14:20:00,50.0,32.7,30.21,SE,135,0.9,10.7,51,0.00,,,0.00,WUHU216HW,2013-03-03 22:20:00,
2013-03-03 14:25:00,50.2,32.9,30.21,NNE,23,5.4,8.5,51,0.00,,,0.00,WUHU216HW,2013-03-03 22:25:00,
2013-03-03 14:30:00,50.2,32.4,30.21,SSE,158,1.1,8.9,50,0.00,,,0.00,WUHU216HW,2013-03-03 22:30:00,
2013-03-03 14:35:00,49.9,32.0,30.21,North,0,5.4,11.9,50,0.00,,,0.00,WUHU216HW,2013-03-03 22:35:00,
2013-03-03 14:40:00,49.9,32.0,30.20,NE,45,6.0,11.9,50,0.00,,,0.00,WUHU216HW,2013-03-03 22:40:00,
2013-03-03 14:45:00,49.9,32.0,30.21,NNE,23,6.0,9.4,50,0.00,,,0.00,WUHU216HW,2013-03-03 22:45:00,
2013-03-03 14:50:00,50.0,32.2,30.21,NW,315,3.8,9.4,50,0.00,,,0.00,WUHU216HW,2013-03-03 22:50:00,
2013-03-03 14:55:00,50.0,32.2,30.20,SW,225,2.5,6.9,50,0.00,,,0.00,WUHU216HW,2013-03-03 22:55:00,
2013-03-03 15:00:00,50.0,31.2,30.21,East,90,3.6,9.4,48,0.00,,,0.00,WUHU216HW,2013-03-03 23:00:00,
2013-03-03 15:05:00,49.7,31.9,30.21,North,0,9.4,9.4,50,0.00,,,0.00,WUHU216HW,2013-03-03 23:05:00,
2013-03-03 15:10:00,49.5,32.1,30.21,East,90,0.7,9.4,51,0.00,,,0.00,WUHU216HW,2013-03-03 23:10:00,
2013-03-03 15:15:00,49.7,31.9,30.20,East,90,5.4,9.4,50,0.00,,,0.00,WUHU216HW,2013-03-03 23:15:00,
2013-03-03 15:20:00,49.9,31.5,30.21,NE,45,8.5,9.2,49,0.00,,,0.00,WUHU216HW,2013-03-03 23:20:00,
2013-03-03 15:25:00,49.7,31.9,30.20,NE,45,5.6,8.9,50,0.00,,,0.00,WUHU216HW,2013-03-03 23:25:00,
2013-03-03 15:30:00,49.5,30.6,30.21,NNE,23,7.2,10.5,48,0.00,,,0.00,WUHU216HW,2013-03-03 23:30:00,
2013-03-03 15:35:00,49.3,31.0,30.21,West,270,4.0,10.5,49,0.00,,,0.00,WUHU216HW,2013-03-03 23:35:00,
2013-03-03 15:40:00,49.3,30.4,30.20,NNE,23,6.7,8.5,48,0.00,,,0.00,WUHU216HW,2013-03-03 23:40:00,
2013-03-03 15:45:00,49.5,31.2,30.20,NNE,23,7.8,8.9,49,0.00,,,0.00,WUHU216HW,2013-03-03 23:45:00,
2013-03-03 15:50:00,49.5,30.6,30.20,NNW,338,3.6,8.9,48,0.00,,,0.00,WUHU216HW,2013-03-03 23:50:00,
2013-03-03 15:55:00,49.5,30.6,30.20,NE,45,8.7,10.5,48,0.00,,,0.00,WUHU216HW,2013-03-03 23:55:00,
2013-03-03 16:00:00,49.3,30.4,30.20,North,0,4.7,10.5,48,0.00,,,0.00,WUHU216HW,2013-03-04 00:00:00,
2013-03-03 16:05:00,49.3,30.4,30.20,NNE,23,5.8,8.7,48,0.00,,,0.00,WUHU216HW,2013-03-04 00:05:00,
2013-03-03 16:10:00,49.3,31.0,30.20,North,0,1.3,9.8,49,0.00,,,0.00,WUHU216HW,2013-03-04 00:10:00,
2013-03-03 16:15:00,49.3,31.0,30.20,NNE,23,2.5,9.8,49,0.00,,,0.00,WUHU216HW,2013-03-04 00:15:00,
2013-03-03 16:20:00,49.3,31.5,30.20,NNE,23,4.5,7.6,50,0.00,,,0.00,WUHU216HW,2013-03-04 00:20:00,
2013-03-03 16:25:00,49.3,31.0,30.20,NNE,23,8.1,8.5,49,0.00,,,0.00,WUHU216HW,2013-03-04 00:25:00,
2013-03-03 16:30:00,49.3,31.5,30.20,NNE,23,4.0,8.5,50,0.00,,,0.00,WUHU216HW,2013-03-04 00:30:00,
2013-03-03 16:35:00,49.1,31.3,30.20,North,0,3.6,8.3,50,0.00,,,0.00,WUHU216HW,2013-03-04 00:35:00,
2013-03-03 16:40:00,49.0,31.1,30.19,NNE,23,2.5,7.2,50,0.00,,,0.00,WUHU216HW,2013-03-04 00:40:00,
2013-03-03 16:45:00,49.0,31.6,30.19,North,0,3.4,4.0,51,0.00,,,0.00,WUHU216HW,2013-03-04 00:45:00,
2013-03-03 16:50:00,48.8,31.9,30.19,SW,225,2.5,7.4,52,0.00,,,0.00,WUHU216HW,2013-03-04 00:50:00,
2013-03-03 16:55:00,48.6,31.2,30.18,NNW,338,3.8,7.4,51,0.00,,,0.00,WUHU216HW,2013-03-04 00:55:00,
2013-03-03 17:00:00,48.4,31.5,30.18,NE,45,2.9,6.9,52,0.00,,,0.00,WUHU216HW,2013-03-04 01:00:00,
2013-03-03 17:05:00,48.2,31.3,30.18,NNE,23,2.5,6.7,52,0.00,,,0.00,WUHU216HW,2013-03-04 01:05:00,
2013-03-03 17:10:00,48.1,31.7,30.18,NNE,23,1.8,6.0,53,0.00,,,0.00,WUHU216HW,2013-03-04 01:10:00,
2013-03-03 17:15:00,48.1,31.7,30.18,North,0,2.9,6.9,53,0.00,,,0.00,WUHU216HW,2013-03-04 01:15:00,
2013-03-03 17:20:00,47.9,31.5,30.18,North,0,3.8,6.9,53,0.00,,,0.00,WUHU216HW,2013-03-04 01:20:00,
2013-03-03 17:25:00,47.7,31.8,30.18,NNE,23,2.7,8.1,54,0.00,,,0.00,WUHU216HW,2013-03-04 01:25:00,
2013-03-03 17:30:00,47.7,32.2,30.18,NNW,338,1.8,8.1,55,0.00,,,0.00,WUHU216HW,2013-03-04 01:30:00,
2013-03-03 17:35:00,47.5,32.0,30.19,NNE,23,1.8,6.3,55,0.00,,,0.00,WUHU216HW,2013-03-04 01:35:00,
2013-03-03 17:40:00,47.3,32.4,30.18,NNE,23,3.4,6.3,56,0.00,,,0.00,WUHU216HW,2013-03-04 01:40:00,
2013-03-03 17:45:00,47.2,32.2,30.18,NNE,23,3.4,4.9,56,0.00,,,0.00,WUHU216HW,2013-03-04 01:45:00,
2013-03-03 17:50:00,46.8,32.3,30.18,NNE,23,5.1,5.6,57,0.00,,,0.00,WUHU216HW,2013-03-04 01:50:00,
2013-03-03 17:55:00,46.8,32.3,30.18,North,0,1.1,5.6,57,0.00,,,0.00,WUHU216HW,2013-03-04 01:55:00,
2013-03-03 18:59:00,44.5,32.2,30.18,NNE,23,0.9,0.9,62,0.00,,,0.00,WUHU216HW,2013-03-04 02:59:00,
2013-03-03 19:04:00,44.3,32.5,30.19,NW,315,0.9,1.6,63,0.00,,,0.00,WUHU216HW,2013-03-04 03:04:00,
2013-03-03 19:09:00,44.3,32.5,30.19,NW,315,0.9,1.6,63,0.00,,,0.00,WUHU216HW,2013-03-04 03:09:00,
2013-03-03 19:34:00,43.4,32.8,30.18,NNW,338,1.3,1.3,66,0.00,,,0.00,WUHU216HW,2013-03-04 03:34:00,
2013-03-03 19:39:00,43.4,32.8,30.18,NNW,338,1.3,1.3,66,0.00,,,0.00,WUHU216HW,2013-03-04 03:39:00,
2013-03-03 20:00:00,43.0,33.2,30.18,North,0,1.6,1.6,68,0.00,,,0.00,WUHU216HW,2013-03-04 04:00:00,
2013-03-03 20:05:00,43.0,33.2,30.18,North,0,1.6,1.6,68,0.00,,,0.00,WUHU216HW,2013-03-04 04:05:00,
2013-03-03 20:30:00,42.1,32.8,30.18,North,0,0.9,0.9,69,0.00,,,0.00,WUHU216HW,2013-03-04 04:30:00,
2013-03-03 20:35:00,42.1,32.8,30.18,North,0,0.9,0.9,69,0.00,,,0.00,WUHU216HW,2013-03-04 04:35:00,
2013-03-03 21:00:00,41.8,32.8,30.18,North,0,0.7,0.7,70,0.00,,,0.00,WUHU216HW,2013-03-04 05:00:00,
2013-03-03 21:05:00,41.8,32.8,30.18,North,0,0.7,0.7,70,0.00,,,0.00,WUHU216HW,2013-03-04 05:05:00,
2013-03-03 21:11:00,41.4,33.0,30.18,North,0,1.8,1.8,72,0.00,,,0.00,WUHU216HW,2013-03-04 05:11:00,
2013-03-03 21:16:00,41.2,33.2,30.18,NE,45,0.4,3.4,73,0.00,,,0.00,WUHU216HW,2013-03-04 05:16:00,
2013-03-03 21:21:00,41.0,33.7,30.18,NW,315,0.2,3.4,75,0.00,,,0.00,WUHU216HW,2013-03-04 05:21:00,
2013-03-03 21:26:00,40.9,33.5,30.18,NNE,23,0.2,1.8,75,0.00,,,0.00,WUHU216HW,2013-03-04 05:26:00,
2013-03-03 21:31:00,40.7,33.3,30.18,North,0,0.2,1.6,75,0.00,,,0.00,WUHU216HW,2013-03-04 05:31:00,
2013-03-03 21:36:00,40.5,33.9,30.18,North,0,0.4,1.6,77,0.00,,,0.00,WUHU216HW,2013-03-04 05:36:00,
2013-03-03 21:41:00,40.3,33.7,30.18,NNW,338,0.0,0.9,77,0.00,,,0.00,WUHU216HW,2013-03-04 05:41:00,
2013-03-03 21:46:00,40.3,34.3,30.18,NNW,338,0.4,0.7,79,0.00,,,0.00,WUHU216HW,2013-03-04 05:46:00,
2013-03-03 21:51:00,40.1,34.7,30.17,WNW,293,0.0,1.1,81,0.00,,,0.00,WUHU216HW,2013-03-04 05:51:00,
2013-03-03 21:56:00,40.1,34.1,30.17,NNW,338,0.0,1.1,79,0.00,,,0.00,WUHU216HW,2013-03-04 05:56:00,
2013-03-03 22:01:00,40.0,34.3,30.17,WNW,293,0.4,1.8,80,0.00,,,0.00,WUHU216HW,2013-03-04 06:01:00,
2013-03-03 22:06:00,39.8,34.5,30.17,NW,315,0.2,1.8,81,0.00,,,0.00,WUHU216HW,2013-03-04 06:06:00,
2013-03-03 22:11:00,39.8,34.5,30.17,North,0,0.7,2.9,81,0.00,,,0.00,WUHU216HW,2013-03-04 06:11:00,
2013-03-03 22:16:00,39.6,34.6,30.17,North,0,1.3,2.9,82,0.00,,,0.00,WUHU216HW,2013-03-04 06:16:00,
2013-03-03 22:21:00,39.6,34.6,30.17,NNE,23,0.2,4.0,82,0.00,,,0.00,WUHU216HW,2013-03-04 06:21:00,
2013-03-03 22:26:00,39.6,34.6,30.16,North,0,1.6,4.0,82,0.00,,,0.00,WUHU216HW,2013-03-04 06:26:00,
2013-03-03 22:31:00,39.4,34.7,30.17,North,0,1.1,2.5,83,0.00,,,0.00,WUHU216HW,2013-03-04 06:31:00,
2013-03-03 22:36:00,39.2,34.6,30.17,NNE,23,1.3,4.7,83,0.00,,,0.00,WUHU216HW,2013-03-04 06:36:00,
2013-03-03 22:41:00,39.2,34.6,30.17,ENE,68,0.2,4.7,83,0.00,,,0.00,WUHU216HW,2013-03-04 06:41:00,
2013-03-03 22:46:00,39.1,34.7,30.17,SSE,158,0.0,2.0,84,0.00,,,0.00,WUHU216HW,2013-03-04 06:46:00,
2013-03-03 22:51:00,38.9,34.5,30.17,WSW,248,0.2,0.9,84,0.00,,,0.00,WUHU216HW,2013-03-04 06:51:00,
2013-03-03 22:56:00,38.7,34.3,30.17,North,0,0.7,0.7,84,0.00,,,0.00,WUHU216HW,2013-03-04 06:56:00,
2013-03-03 23:01:00,38.5,34.1,30.17,West,270,0.4,1.8,84,0.00,,,0.00,WUHU216HW,2013-03-04 07:01:00,
2013-03-03 23:06:00,38.5,34.4,30.17,NNE,23,0.4,1.8,85,0.00,,,0.00,WUHU216HW,2013-03-04 07:06:00,
2013-03-03 23:11:00,38.5,34.1,30.17,North,0,0.9,2.2,84,0.00,,,0.00,WUHU216HW,2013-03-04 07:11:00,
2013-03-03 23:16:00,38.3,34.5,30.16,North,0,0.4,2.9,86,0.00,,,0.00,WUHU216HW,2013-03-04 07:16:00,
2013-03-03 23:21:00,38.5,34.7,30.16,North,0,0.4,2.9,86,0.00,,,0.00,WUHU216HW,2013-03-04 07:21:00,
2013-03-03 23:26:00,38.5,34.7,30.16,NNE,23,0.4,2.5,86,0.00,,,0.00,WUHU216HW,2013-03-04 07:26:00,
2013-03-03 23:31:00,38.3,34.5,30.16,North,0,0.0,1.8,86,0.00,,,0.00,WUHU216HW,2013-03-04 07:31:00,
2013-03-03 23:36:00,38.3,34.5,30.16,North,0,0.4,3.1,86,0.00,,,0.00,WUHU216HW,2013-03-04 07:36:00,
2013-03-03 23:41:00,38.3,34.5,30.16,NNE,23,0.4,3.1,86,0.00,,,0.00,WUHU216HW,2013-03-04 07:41:00,
2013-03-03 23:46:00,38.2,34.3,30.16,NNE,23,0.2,2.2,86,0.00,,,0.00,WUHU216HW,2013-03-04 07:46:00,
2013-03-03 23:51:00,38.2,34.3,30.16,NNW,338,0.0,0.9,86,0.00,,,0.00,WUHU216HW,2013-03-04 07:51:00,
2013-03-03 23:56:00,38.2,34.3,30.15,NNW,338,0.2,0.9,86,0.00,,,0.00,WUHU216HW,2013-03-04 07:56:00,